Погода Каллифеяна неделю

Аттика, Греция

31 августа-06 сентября
  • 31августа
    Сегодня
    +26°
    +34°
    Ясно и безоблачно
    ВремяПогодаТемператураВлажностьДавлениеВетер, м/сВероятность осадков
    00:00Ясно и безоблачно+27°C47 %756 мм1.4 м/с2 %
    03:00Ясно и безоблачно+26°C49 %755 мм1.0 м/с2 %
    06:00Ясно и безоблачно+26°C47 %755 мм1.4 м/с2 %
    09:00Ясно и безоблачно+28°C41 %756 мм1.6 м/с2 %
    12:00Ясно и безоблачно+32°C32 %755 мм2.5 м/с2 %
    15:00Ясно и безоблачно+34°C29 %754 мм2.6 м/с1 %
    18:00Ясно и безоблачно+33°C29 %754 мм3.0 м/с2 %
    21:00Ясно и безоблачно+29°C38 %754 мм2.3 м/с2 %
  • 01сентября
    Вторник
    +26°
    +35°
    Ясно и безоблачно
    ВремяПогодаТемператураВлажностьДавлениеВетер, м/сВероятность осадков
    00:00Ясно и безоблачно+28°C40 %754 мм1.5 м/с2 %
    03:00Ясно и безоблачно+27°C40 %754 мм1.2 м/с2 %
    06:00Ясно и безоблачно+26°C43 %754 мм1.3 м/с2 %
    09:00Ясно и безоблачно+29°C38 %754 мм1.7 м/с2 %
    12:00Ясно и безоблачно+33°C29 %755 мм2.9 м/с2 %
    15:00Ясно и безоблачно+35°C28 %754 мм3.0 м/с2 %
    18:00Ясно и безоблачно+34°C29 %753 мм2.9 м/с2 %
    21:00Ясно и безоблачно+30°C44 %754 мм1.9 м/с2 %
  • 02сентября
    Среда
    +26°
    +36°
    Ясно и безоблачно
    ВремяПогодаТемператураВлажностьДавлениеВетер, м/сВероятность осадков
    00:00Ясно и безоблачно+28°C49 %754 мм1.2 м/с2 %
    03:00Ясно и безоблачно+27°C47 %754 мм1.0 м/с2 %
    06:00Ясно и безоблачно+27°C44 %754 мм1.5 м/с2 %
    09:00Ясно и безоблачно+29°C38 %755 мм2.1 м/с2 %
    12:00Ясно и безоблачно+34°C28 %756 мм3.9 м/с2 %
    15:00Ясно и безоблачно+36°C22 %754 мм4.5 м/с2 %
    18:00Ясно и безоблачно+35°C23 %754 мм4.4 м/с2 %
    21:00Ясно и безоблачно+31°C37 %754 мм2.5 м/с2 %
  • 03сентября
    Четверг
    +24°
    +35°
    Практически безоблачно
    ВремяПогодаТемператураВлажностьДавлениеВетер, м/сВероятность осадков
    00:00Ясно и безоблачно+29°C41 %754 мм1.5 м/с2 %
    03:00Ясно и безоблачно+27°C40 %753 мм1.4 м/с2 %
    06:00Ясно и безоблачно+27°C39 %753 мм1.8 м/с2 %
    09:00Ясно и безоблачно+29°C36 %753 мм2.1 м/с2 %
    12:00Ясно и безоблачно+33°C29 %753 мм3.8 м/с5 %
    15:00Практически безоблачно+35°C22 %752 мм4.3 м/с24 %
    18:00Практически безоблачно+34°C22 %751 мм5.0 м/с26 %
    21:00Ясно и безоблачно+29°C35 %752 мм3.4 м/с8 %
  • 04сентября
    Пятница
    +24°
    +33°
    Ясно и безоблачно
    ВремяПогодаТемператураВлажностьДавлениеВетер, м/сВероятность осадков
    00:00Ясно и безоблачно+28°C38 %753 мм2.3 м/с2 %
    03:00Ясно и безоблачно+26°C47 %753 мм1.7 м/с2 %
    06:00Ясно и безоблачно+25°C54 %753 мм1.9 м/с7 %
    09:00Ясно и безоблачно+27°C46 %754 мм2.8 м/с7 %
    12:00Практически безоблачно+30°C31 %754 мм4.0 м/с25 %
    15:00Ясно и безоблачно+33°C26 %754 мм4.7 м/с31 %
    18:00Ясно и безоблачно+32°C26 %754 мм4.8 м/с8 %
    21:00Ясно и безоблачно+28°C42 %755 мм2.8 м/с2 %
  • 05сентября
    Суббота
    +23°
    +35°
    Ясно и безоблачно
    ВремяПогодаТемператураВлажностьДавлениеВетер, м/сВероятность осадков
    03:00Ясно и безоблачно+24°C46 %756 мм1.6 м/с2 %
    09:00Ясно и безоблачно+27°C39 %758 мм2.5 м/с2 %
    15:00Ясно и безоблачно+34°C19 %758 мм4.1 м/с2 %
    21:00Ясно и безоблачно+28°C43 %758 мм1.5 м/с2 %
  • 06сентября
    Воскресенье
    +24°
    +36°
    Ясно и безоблачно
    ВремяПогодаТемператураВлажностьДавлениеВетер, м/сВероятность осадков
    03:00Ясно и безоблачно+24°C52 %757 мм2.7 м/с2 %
    09:00Ясно и безоблачно+27°C52 %757 мм2.8 м/с2 %
    15:00Ясно и безоблачно+35°C37 %757 мм3.9 м/с2 %
    21:00Ясно и безоблачно+30°C44 %757 мм2.3 м/с2 %
Мы используем cookies
Соглашаюсь